createdAt,value
2022-10-11T00:01:16.434Z,13.70
2022-10-11T00:03:42.821Z,13.56
2022-10-11T00:06:09.621Z,13.78
2022-10-11T00:08:36.148Z,13.49
2022-10-11T00:11:06.490Z,13.62
2022-10-11T00:13:33.224Z,13.51
2022-10-11T00:15:59.923Z,13.66
2022-10-11T00:18:26.600Z,12.70
2022-10-11T00:21:01.987Z,13.34
2022-10-11T00:23:28.348Z,13.26
2022-10-11T00:26:03.442Z,13.08
2022-10-11T00:28:30.721Z,12.76
2022-10-11T00:30:57.289Z,13.26
2022-10-11T00:33:23.808Z,13.16
2022-10-11T00:35:50.395Z,13.05
2022-10-11T00:38:17.771Z,12.24
2022-10-11T00:40:45.239Z,13.04
2022-10-11T00:43:16.987Z,13.07
2022-10-11T00:45:59.691Z,12.68
2022-10-11T00:48:33.077Z,12.46
2022-10-11T00:51:02.868Z,12.83
2022-10-11T00:53:32.224Z,12.60
2022-10-11T00:56:17.043Z,12.92
2022-10-11T00:58:43.942Z,13.14
2022-10-11T01:01:10.615Z,12.86
2022-10-11T01:03:39.742Z,12.48
2022-10-11T01:06:07.210Z,12.37
2022-10-11T01:08:34.137Z,13.02
2022-10-11T01:11:00.940Z,12.83
2022-10-11T01:13:32.955Z,13.07
2022-10-11T01:16:13.494Z,12.84
2022-10-11T01:19:12.386Z,12.83
2022-10-11T01:22:02.409Z,12.87
2022-10-11T01:24:39.325Z,12.69
2022-10-11T01:27:27.319Z,12.84
2022-10-11T01:30:02.925Z,12.98
2022-10-11T01:32:37.299Z,12.95
2022-10-11T01:35:03.801Z,12.91
2022-10-11T01:37:37.567Z,12.84
2022-10-11T01:40:14.003Z,12.70
2022-10-11T01:42:42.705Z,12.64
2022-10-11T01:45:13.922Z,12.26
2022-10-11T01:47:42.382Z,12.44
2022-10-11T01:50:49.036Z,11.93
2022-10-11T01:53:26.868Z,11.95
2022-10-11T01:56:00.523Z,12.55
2022-10-11T01:58:38.022Z,11.76
2022-10-11T02:01:07.573Z,12.46
2022-10-11T02:03:38.089Z,11.77
2022-10-11T02:06:12.276Z,11.72
2022-10-11T02:08:49.916Z,12.35
2022-10-11T02:11:22.704Z,12.13
2022-10-11T02:13:59.193Z,11.97
2022-10-11T02:16:31.712Z,12.10
2022-10-11T02:19:01.258Z,12.07
2022-10-11T02:21:29.614Z,11.95
2022-10-11T02:24:04.371Z,11.78
2022-10-11T02:26:33.518Z,12.02
2022-10-11T02:29:04.287Z,12.31
2022-10-11T02:31:34.385Z,12.00
2022-10-11T02:34:23.015Z,12.27
2022-10-11T02:37:04.073Z,11.77
2022-10-11T02:39:41.885Z,11.66
2022-10-11T02:42:14.822Z,11.61
2022-10-11T02:44:47.094Z,11.36
2022-10-11T02:47:14.518Z,11.54
2022-10-11T02:49:40.931Z,11.85
2022-10-11T02:52:07.464Z,11.02
2022-10-11T02:54:34.103Z,11.66
2022-10-11T02:57:00.412Z,11.88
2022-10-11T02:59:26.715Z,11.76
2022-10-11T03:01:53.118Z,11.68
2022-10-11T03:04:19.545Z,11.46
2022-10-11T03:06:46.084Z,11.25
2022-10-11T03:09:12.418Z,10.92
2022-10-11T03:11:38.770Z,11.41
2022-10-11T03:14:05.389Z,11.16
2022-10-11T03:16:31.807Z,11.65
2022-10-11T03:18:58.127Z,11.90
2022-10-11T03:21:25.165Z,11.09
2022-10-11T03:23:51.490Z,11.64
2022-10-11T03:26:17.822Z,11.53
2022-10-11T03:28:44.282Z,11.59
2022-10-11T03:31:10.906Z,10.95
2022-10-11T03:33:37.258Z,10.85
2022-10-11T03:36:04.166Z,11.21
2022-10-11T03:38:30.727Z,10.66
2022-10-11T03:40:57.052Z,11.36
2022-10-11T03:43:23.399Z,11.31
2022-10-11T03:45:49.758Z,10.94
2022-10-11T03:48:16.095Z,11.48
2022-10-11T03:50:42.444Z,11.29
2022-10-11T03:53:08.970Z,11.30
2022-10-11T03:55:37.389Z,11.19
2022-10-11T03:58:03.749Z,11.22
2022-10-11T04:00:30.097Z,11.39
2022-10-11T04:02:56.438Z,11.34
2022-10-11T04:05:22.879Z,11.39
2022-10-11T04:07:49.337Z,11.16
2022-10-11T04:10:15.749Z,10.89
2022-10-11T04:12:42.106Z,10.51
2022-10-11T04:15:08.887Z,11.10
2022-10-11T04:17:35.237Z,11.22
2022-10-11T04:20:01.641Z,10.64
2022-10-11T04:22:27.960Z,11.07
2022-10-11T04:24:54.380Z,11.22
2022-10-11T04:27:20.746Z,11.11
2022-10-11T04:29:47.116Z,10.57
2022-10-11T04:32:13.426Z,11.07
2022-10-11T04:34:39.726Z,10.84
2022-10-11T04:37:06.099Z,10.99
2022-10-11T04:39:32.415Z,10.92
2022-10-11T04:41:58.745Z,10.93
2022-10-11T04:44:25.150Z,11.02
2022-10-11T04:46:51.534Z,10.94
2022-10-11T04:49:17.944Z,10.91
2022-10-11T04:51:44.301Z,10.13
2022-10-11T04:54:10.630Z,10.15
2022-10-11T04:56:36.968Z,10.19
2022-10-11T04:59:03.536Z,10.55
2022-10-11T05:01:29.997Z,10.83
2022-10-11T05:03:56.507Z,10.23
2022-10-11T05:06:22.879Z,10.95
2022-10-11T05:08:49.237Z,10.13
2022-10-11T05:11:16.898Z,10.95
2022-10-11T05:13:44.517Z,9.94
2022-10-11T05:16:12.480Z,9.83
2022-10-11T05:18:39.664Z,10.34
2022-10-11T05:21:14.314Z,10.87
2022-10-11T05:23:40.894Z,10.59
2022-10-11T05:26:07.981Z,10.73
2022-10-11T05:28:34.615Z,10.69
2022-10-11T05:31:00.978Z,10.45
2022-10-11T05:33:27.579Z,10.44
2022-10-11T05:35:54.220Z,10.38
2022-10-11T05:38:20.587Z,10.50
2022-10-11T05:40:47.038Z,9.64
2022-10-11T05:43:13.501Z,10.30
2022-10-11T05:45:41.536Z,10.59
2022-10-11T05:48:08.567Z,9.85
2022-10-11T05:50:35.593Z,10.67
2022-10-11T05:53:03.060Z,10.48
2022-10-11T05:55:29.437Z,10.40
2022-10-11T05:57:57.423Z,10.31
2022-10-11T06:00:24.776Z,10.40
2022-10-11T06:02:51.143Z,9.86
2022-10-11T06:05:18.151Z,9.77
2022-10-11T06:07:44.704Z,9.53
2022-10-11T06:10:12.117Z,10.45
2022-10-11T06:12:38.813Z,9.71
2022-10-11T06:15:06.330Z,9.81
2022-10-11T06:17:32.688Z,10.00
2022-10-11T06:19:59.123Z,9.38
2022-10-11T06:22:26.624Z,9.87
2022-10-11T06:24:53.070Z,9.58
2022-10-11T06:27:19.406Z,10.56
2022-10-11T06:29:45.840Z,9.20
2022-10-11T06:32:13.333Z,10.17
2022-10-11T06:34:39.913Z,10.14
2022-10-11T06:37:06.621Z,10.65
2022-10-11T06:39:33.248Z,10.56
2022-10-11T06:41:59.595Z,10.59
2022-10-11T06:44:26.733Z,10.73
2022-10-11T06:46:53.093Z,10.20
2022-10-11T06:49:23.243Z,10.26
2022-10-11T06:51:50.566Z,10.04
2022-10-11T06:54:16.908Z,10.55
2022-10-11T06:56:45.487Z,10.68
2022-10-11T06:59:13.342Z,10.98
2022-10-11T07:01:39.778Z,10.37
2022-10-11T07:04:06.288Z,11.01
2022-10-11T07:06:37.457Z,9.83
2022-10-11T07:09:04.912Z,11.02
2022-10-11T07:11:31.566Z,11.25
2022-10-11T07:14:10.220Z,10.31
2022-10-11T07:16:37.281Z,11.47
2022-10-11T07:19:07.912Z,10.95
2022-10-11T07:29:27.559Z,10.45
2022-10-11T07:32:09.106Z,10.70
2022-10-11T07:34:59.685Z,11.78
2022-10-11T07:37:26.079Z,11.42
2022-10-11T07:39:52.523Z,10.96
2022-10-11T07:42:19.106Z,11.46
2022-10-11T07:44:45.712Z,11.50
2022-10-11T07:47:12.178Z,11.50
2022-10-11T07:49:38.619Z,11.07
2022-10-11T07:52:08.221Z,11.52
2022-10-11T07:54:34.693Z,12.30
2022-10-11T07:57:01.872Z,11.68
2022-10-11T07:59:28.663Z,12.04
2022-10-11T08:01:55.450Z,12.15
2022-10-11T08:04:21.983Z,12.57
2022-10-11T08:06:56.891Z,12.35
2022-10-11T08:09:25.372Z,12.02
2022-10-11T08:11:53.573Z,12.96
2022-10-11T08:14:23.601Z,12.40
2022-10-11T08:16:51.188Z,12.77
2022-10-11T08:19:21.402Z,12.06
2022-10-11T08:21:48.007Z,12.62
2022-10-11T08:24:21.054Z,12.25
2022-10-11T08:26:48.107Z,13.42
2022-10-11T08:29:14.721Z,13.31
2022-10-11T08:31:42.200Z,12.43
2022-10-11T08:34:08.757Z,12.46
2022-10-11T08:36:35.172Z,13.08
2022-10-11T08:39:03.131Z,13.89
2022-10-11T08:41:37.971Z,13.87
2022-10-11T08:44:23.172Z,14.11
2022-10-11T08:47:00.412Z,13.79
2022-10-11T08:49:30.344Z,13.84
2022-10-11T08:52:02.582Z,14.34
2022-10-11T08:54:44.722Z,14.20
2022-10-11T08:57:21.550Z,13.48
2022-10-11T09:00:00.759Z,14.33
2022-10-11T09:10:58.467Z,14.84
2022-10-11T09:13:59.771Z,14.71
2022-10-11T09:16:39.481Z,14.11
2022-10-11T09:20:01.501Z,15.15
2022-10-11T09:22:50.625Z,15.12
2022-10-11T09:25:44.412Z,15.31
2022-10-11T09:28:11.888Z,15.20
2022-10-11T09:30:45.738Z,14.42
2022-10-11T09:33:18.953Z,14.67
2022-10-11T09:35:52.408Z,15.68
2022-10-11T09:38:26.987Z,14.48
2022-10-11T09:41:19.497Z,16.06
2022-10-11T09:43:49.498Z,14.78
2022-10-11T09:46:32.380Z,15.29
2022-10-11T09:49:02.792Z,15.16
2022-10-11T09:51:30.179Z,15.83
2022-10-11T09:54:02.927Z,15.38
2022-10-11T09:56:31.755Z,16.22
2022-10-11T09:59:12.335Z,16.14
2022-10-11T10:01:38.795Z,16.30
2022-10-11T10:04:11.908Z,16.37
2022-10-11T10:06:39.276Z,16.86
2022-10-11T10:09:30.059Z,17.31
2022-10-11T10:11:57.289Z,16.65
2022-10-11T10:14:32.815Z,17.37
2022-10-11T10:17:19.928Z,17.51
2022-10-11T10:19:51.720Z,18.26
2022-10-11T10:22:26.941Z,19.23
2022-10-11T10:24:58.617Z,22.34
2022-10-11T10:27:27.785Z,24.77
2022-10-11T10:30:09.500Z,26.16
2022-10-11T10:33:10.900Z,26.67
2022-10-11T10:35:52.584Z,26.39
2022-10-11T10:38:34.369Z,26.12
2022-10-11T10:41:15.767Z,25.15
2022-10-11T10:43:45.546Z,23.14
2022-10-11T10:46:18.028Z,23.38
2022-10-11T10:49:28.765Z,22.57
2022-10-11T10:52:07.926Z,21.61
2022-10-11T10:55:01.129Z,21.02
2022-10-11T10:57:33.679Z,20.33
2022-10-11T11:00:29.469Z,20.11
2022-10-11T11:03:03.439Z,19.77
2022-10-11T11:05:48.258Z,19.21
2022-10-11T11:08:47.255Z,19.28
2022-10-11T11:11:38.323Z,19.84
2022-10-11T11:14:46.215Z,19.77
2022-10-11T11:17:34.719Z,19.56
2022-10-11T11:20:22.683Z,18.78
2022-10-11T11:23:11.746Z,19.06
2022-10-11T11:26:00.478Z,19.49
2022-10-11T11:28:49.882Z,19.46
2022-10-11T11:31:22.501Z,19.58
2022-10-11T11:34:05.720Z,19.63
2022-10-11T11:36:35.091Z,19.99
2022-10-11T11:39:04.407Z,19.90
2022-10-11T11:41:37.984Z,20.64
2022-10-11T11:44:29.565Z,20.19
2022-10-11T11:46:59.281Z,20.76
2022-10-11T11:49:34.185Z,20.45
2022-10-11T11:52:11.811Z,20.60
2022-10-11T11:54:53.475Z,20.48
2022-10-11T11:57:36.589Z,20.51
2022-10-11T12:00:14.588Z,20.21
2022-10-11T12:02:52.307Z,20.35
2022-10-11T12:05:25.639Z,20.55
2022-10-11T12:07:54.957Z,19.17
2022-10-11T12:10:37.137Z,20.01
2022-10-11T12:13:06.774Z,19.41
2022-10-11T12:15:33.492Z,19.52
2022-10-11T12:18:07.788Z,19.09
2022-10-11T12:20:41.240Z,19.59
2022-10-11T12:23:29.087Z,19.98
2022-10-11T12:26:17.251Z,20.07
2022-10-11T12:28:43.746Z,20.05
2022-10-11T12:31:34.296Z,19.95
2022-10-11T12:34:00.955Z,20.57
2022-10-11T12:36:38.361Z,20.96
2022-10-11T12:39:20.158Z,21.42
2022-10-11T12:41:55.697Z,21.60
2022-10-11T12:44:27.222Z,21.83
2022-10-11T12:46:53.692Z,22.01
2022-10-11T12:49:41.922Z,22.12
2022-10-11T12:52:17.566Z,21.89
2022-10-11T12:55:22.494Z,21.73
2022-10-11T12:58:25.675Z,21.51
2022-10-11T13:00:58.422Z,21.31
2022-10-11T13:03:36.353Z,20.57
2022-10-11T13:06:14.732Z,20.92
2022-10-11T13:08:47.841Z,20.71
2022-10-11T13:11:21.589Z,20.53
2022-10-11T13:13:56.760Z,20.08
2022-10-11T13:16:41.701Z,19.95
2022-10-11T13:19:13.354Z,18.97
2022-10-11T13:21:39.918Z,18.88
2022-10-11T13:24:16.034Z,19.37
2022-10-11T13:29:33.829Z,19.18
2022-10-11T13:32:08.462Z,18.77
2022-10-11T13:34:39.221Z,19.32
2022-10-11T13:37:06.618Z,19.52
2022-10-11T13:39:38.121Z,19.45
2022-10-11T13:42:14.465Z,20.00
2022-10-11T13:44:42.328Z,19.84
2022-10-11T13:47:17.663Z,20.44
2022-10-11T13:49:46.725Z,20.79
2022-10-11T13:52:21.704Z,21.09
2022-10-11T13:55:00.740Z,21.28
2022-10-11T13:57:37.724Z,21.33
2022-10-11T14:00:17.113Z,21.62
2022-10-11T14:10:23.009Z,20.48
2022-10-11T14:13:24.171Z,20.84
2022-10-11T14:16:20.598Z,20.90
2022-10-11T14:18:51.165Z,21.41
2022-10-11T14:21:20.621Z,21.39
2022-10-11T14:23:53.648Z,21.28
2022-10-11T14:26:21.923Z,20.78
2022-10-11T14:28:58.604Z,20.48
2022-10-11T14:31:25.899Z,21.06
2022-10-11T14:34:01.402Z,19.65
2022-10-11T14:36:46.323Z,20.42
2022-10-11T14:39:27.297Z,20.08
2022-10-11T14:41:54.189Z,20.18
2022-10-11T14:44:49.602Z,20.42
2022-10-11T14:47:43.109Z,20.94
2022-10-11T14:50:23.041Z,20.81
2022-10-11T14:52:49.682Z,20.76
2022-10-11T14:55:17.241Z,19.94
2022-10-11T14:57:43.829Z,20.00
2022-10-11T15:00:20.336Z,20.63
2022-10-11T15:02:52.911Z,19.79
2022-10-11T15:05:21.196Z,20.30
2022-10-11T15:10:44.185Z,20.15
2022-10-11T15:13:10.628Z,20.04
2022-10-11T15:15:42.165Z,20.45
2022-10-11T15:18:12.933Z,19.42
2022-10-11T15:20:43.042Z,20.23
2022-10-11T15:23:09.990Z,19.80
2022-10-11T15:25:38.375Z,20.08
2022-10-11T15:28:05.581Z,19.45
2022-10-11T15:30:40.058Z,19.70
2022-10-11T15:33:48.925Z,19.08
2022-10-11T15:36:22.677Z,19.15
2022-10-11T15:38:49.765Z,19.78
2022-10-11T15:41:19.244Z,19.13
2022-10-11T15:43:47.521Z,20.17
2022-10-11T15:46:21.034Z,19.95
2022-10-11T15:48:49.136Z,20.34
2022-10-11T15:51:22.294Z,20.37
2022-10-11T15:54:46.071Z,20.39
2022-10-11T15:57:12.761Z,19.80
2022-10-11T16:00:32.129Z,20.25
2022-10-11T16:02:59.088Z,19.60
2022-10-11T16:05:27.586Z,20.05
2022-10-11T16:07:54.866Z,19.52
2022-10-11T16:10:21.793Z,19.33
2022-10-11T16:12:48.863Z,19.20
2022-10-11T16:15:18.714Z,19.61
2022-10-11T16:17:46.400Z,18.89
2022-10-11T16:20:16.173Z,18.89
2022-10-11T16:22:44.969Z,19.21
2022-10-11T16:25:16.662Z,18.57
2022-10-11T16:27:44.085Z,18.97
2022-10-11T16:30:12.836Z,18.31
2022-10-11T16:32:39.902Z,18.10
2022-10-11T16:35:09.500Z,17.85
2022-10-11T16:37:36.461Z,18.28
2022-10-11T16:40:04.276Z,18.51
2022-10-11T16:42:30.871Z,17.60
2022-10-11T16:44:57.268Z,18.18
2022-10-11T16:47:26.979Z,18.08
2022-10-11T16:49:56.976Z,17.55
2022-10-11T16:52:26.290Z,17.31
2022-10-11T16:54:53.868Z,17.43
2022-10-11T16:57:20.304Z,16.50
2022-10-11T16:59:47.132Z,17.43
2022-10-11T17:02:23.703Z,17.16
2022-10-11T17:04:51.551Z,16.64
2022-10-11T17:07:19.508Z,17.51
2022-10-11T17:09:46.499Z,17.34
2022-10-11T17:12:15.337Z,16.56
2022-10-11T17:14:42.722Z,17.22
2022-10-11T17:17:10.782Z,16.85
2022-10-11T17:19:44.870Z,17.04
2022-10-11T17:22:15.636Z,16.52
2022-10-11T17:24:42.531Z,16.59
2022-10-11T17:27:10.502Z,16.13
2022-10-11T17:29:37.435Z,16.05
2022-10-11T17:32:04.528Z,16.56
2022-10-11T17:34:31.090Z,16.57
2022-10-11T17:36:57.485Z,16.26
2022-10-11T17:39:25.657Z,16.12
2022-10-11T17:41:53.942Z,15.53
2022-10-11T17:44:21.539Z,16.33
2022-10-11T17:46:48.291Z,16.12
2022-10-11T17:49:14.921Z,16.32
2022-10-11T17:51:41.933Z,16.11
2022-10-11T18:05:39.559Z,16.27
2022-10-11T18:26:45.495Z,15.83
2022-10-11T18:29:12.602Z,15.55
2022-10-11T18:31:40.337Z,15.55
2022-10-11T18:34:10.516Z,15.35
2022-10-11T18:36:37.428Z,15.22
2022-10-11T18:39:06.774Z,15.16
2022-10-11T18:41:33.858Z,15.27
2022-10-11T18:44:03.074Z,15.29
2022-10-11T18:46:30.164Z,15.30
2022-10-11T18:48:58.309Z,15.19
2022-10-11T18:51:27.353Z,15.25
2022-10-11T18:53:54.425Z,14.93
2022-10-11T18:56:23.820Z,15.10
2022-10-11T18:58:52.012Z,15.18
2022-10-11T19:01:21.275Z,14.86
2022-10-11T19:03:55.293Z,15.04
2022-10-11T19:06:31.923Z,15.05
2022-10-11T19:09:13.610Z,14.32
2022-10-11T19:11:40.983Z,14.50
2022-10-11T19:14:11.395Z,15.07
2022-10-11T19:16:41.036Z,15.01
2022-10-11T19:19:09.404Z,14.70
2022-10-11T19:21:36.122Z,14.79
2022-10-11T19:24:02.640Z,14.67
2022-10-11T19:26:34.502Z,14.76
2022-10-11T19:29:04.264Z,14.83
2022-10-11T19:31:31.754Z,14.09
2022-10-11T19:33:59.366Z,14.70
2022-10-11T19:36:26.278Z,14.76
2022-10-11T19:38:56.722Z,14.54
2022-10-11T19:41:26.130Z,14.39
2022-10-11T19:43:53.662Z,14.55
2022-10-11T19:49:09.252Z,13.91
2022-10-11T19:51:37.401Z,14.35
2022-10-11T19:54:09.071Z,13.91
2022-10-11T19:56:35.881Z,13.66
2022-10-11T19:59:02.575Z,13.49
2022-10-11T20:01:31.067Z,13.67
2022-10-11T20:04:00.369Z,13.48
2022-10-11T20:06:28.257Z,13.45
2022-10-11T20:09:10.594Z,13.04
2022-10-11T20:11:41.884Z,14.33
2022-10-11T20:14:08.944Z,14.21
2022-10-11T20:16:35.330Z,13.26
2022-10-11T20:19:02.051Z,13.73
2022-10-11T20:21:30.093Z,14.01
2022-10-11T20:23:59.985Z,13.91
2022-10-11T20:26:27.546Z,12.97
2022-10-11T20:28:56.159Z,13.02
2022-10-11T20:31:29.482Z,13.77
2022-10-11T20:34:02.144Z,13.18
2022-10-11T20:37:07.525Z,12.33
2022-10-11T20:39:36.196Z,13.21
2022-10-11T20:42:02.595Z,12.57
2022-10-11T20:44:29.000Z,13.48
2022-10-11T20:46:55.485Z,13.62
2022-10-11T20:49:24.402Z,13.39
2022-10-11T20:51:50.838Z,13.37
2022-10-11T20:54:17.250Z,13.56
2022-10-11T20:56:43.664Z,13.31
2022-10-11T20:59:10.294Z,12.29
2022-10-11T21:01:40.771Z,12.93
2022-10-11T21:04:10.111Z,13.41
2022-10-11T21:06:37.783Z,12.96
2022-10-11T21:09:04.335Z,13.03
2022-10-11T21:11:33.452Z,12.53
2022-10-11T21:14:02.079Z,13.32
2022-10-11T21:16:28.728Z,12.61
2022-10-11T21:18:56.936Z,13.20
2022-10-11T21:21:24.539Z,13.32
2022-10-11T21:24:00.943Z,12.76
2022-10-11T21:26:28.867Z,13.24
2022-10-11T21:28:55.299Z,12.18
2022-10-11T21:31:23.306Z,12.38
2022-10-11T21:33:51.875Z,12.70
2022-10-11T21:36:20.547Z,12.50
2022-10-11T21:38:48.137Z,12.53
2022-10-11T21:41:17.062Z,11.63
2022-10-11T21:43:43.638Z,11.16
2022-10-11T21:46:21.712Z,12.17
2022-10-11T21:48:49.989Z,11.66
2022-10-11T21:51:21.703Z,12.59
2022-10-11T21:53:48.179Z,12.62
2022-10-11T21:56:14.606Z,12.69
2022-10-11T21:58:41.056Z,12.54
2022-10-11T22:01:07.514Z,12.70
2022-10-11T22:03:34.149Z,12.52
2022-10-11T22:06:04.490Z,12.50
2022-10-11T22:08:31.235Z,12.52
2022-10-11T22:10:59.619Z,12.12
2022-10-11T22:13:28.691Z,12.64
2022-10-11T22:15:57.940Z,12.57
2022-10-11T22:18:24.858Z,11.98
2022-10-11T22:20:51.394Z,11.95
2022-10-11T22:23:18.944Z,12.34
2022-10-11T22:25:46.002Z,12.46
2022-10-11T22:28:12.759Z,11.98
2022-10-11T22:30:39.106Z,11.69
2022-10-11T22:33:05.543Z,11.38
2022-10-11T22:35:37.233Z,12.15
2022-10-11T22:38:06.183Z,12.06
2022-10-11T22:40:32.839Z,11.44
2022-10-11T22:42:59.303Z,11.84
2022-10-11T22:45:25.876Z,11.72
2022-10-11T22:47:52.410Z,11.88
2022-10-11T22:50:18.721Z,12.01
2022-10-11T22:52:45.116Z,12.02
2022-10-11T22:55:14.139Z,12.13
2022-10-11T22:57:42.810Z,11.95
2022-10-11T23:00:09.694Z,11.90
2022-10-11T23:02:36.124Z,11.45
2022-10-11T23:05:02.780Z,11.66
2022-10-11T23:07:29.115Z,11.39
2022-10-11T23:09:55.468Z,11.89
2022-10-11T23:12:21.893Z,11.47
2022-10-11T23:14:48.208Z,11.45
2022-10-11T23:17:14.712Z,11.19
2022-10-11T23:19:41.087Z,11.35
2022-10-11T23:22:07.472Z,10.73
2022-10-11T23:24:34.047Z,11.24
2022-10-11T23:27:00.479Z,11.50
2022-10-11T23:29:29.856Z,10.58
2022-10-11T23:31:56.295Z,11.84
2022-10-11T23:34:22.707Z,11.65
2022-10-11T23:36:49.180Z,10.88
2022-10-11T23:39:15.999Z,11.71
2022-10-11T23:41:43.711Z,11.67
2022-10-11T23:44:10.543Z,11.70
2022-10-11T23:46:36.918Z,10.93
2022-10-11T23:49:03.767Z,11.51
2022-10-11T23:51:30.164Z,10.60
2022-10-11T23:53:56.545Z,11.44
2022-10-11T23:56:22.962Z,11.43
2022-10-11T23:58:49.394Z,11.49
